Time;durP1;ratioP1;P1;durP2;ratioP2;P2;SDS_P1;SDS_P2;PMS_P1;PMS_P2;Temp;Humidity;BMP_temperature;BMP_pressure;BME280_temperature;BME280_humidity;BME280_pressure;Samples;Min_cycle;Max_cycle;Signal;HPM_P1;HPM_P2
2022/09/24 00:01:30;;;;;;;5.75;3.33;;;12.20;99.90;;;;;;4994108;28;20033;-83
2022/09/24 00:04:04;;;;;;;5.32;2.58;;;12.20;99.90;;;;;;4981194;28;20499;-83
2022/09/24 00:06:35;;;;;;;5.43;2.97;;;12.20;99.90;;;;;;4996585;28;20030;-83
2022/09/24 00:09:00;;;;;;;7.15;3.35;;;12.20;99.90;;;;;;4995928;28;20022;-83
2022/09/24 00:11:27;;;;;;;6.78;3.15;;;12.30;99.90;;;;;;4997476;28;20033;-83
2022/09/24 00:13:54;;;;;;;5.43;2.70;;;12.20;99.90;;;;;;4991744;28;20030;-83
2022/09/24 00:16:22;;;;;;;6.30;3.42;;;12.20;99.90;;;;;;4997012;28;20023;-83
2022/09/24 00:18:47;;;;;;;7.10;3.40;;;12.20;99.90;;;;;;4987582;28;20030;-84
2022/09/24 00:21:34;;;;;;;7.95;3.60;;;12.20;99.90;;;;;;4983340;28;20157;-83
2022/09/24 00:24:03;;;;;;;6.00;3.08;;;12.10;99.90;;;;;;4996208;28;20402;-83
2022/09/24 00:29:19;;;;;;;6.65;2.78;;;12.10;99.90;;;;;;4991910;28;20054;-83
2022/09/24 00:31:45;;;;;;;5.97;2.45;;;12.10;99.90;;;;;;4995535;28;20057;-83
2022/09/24 00:34:11;;;;;;;5.93;2.67;;;12.10;99.90;;;;;;4993122;28;20018;-83
2022/09/24 00:36:37;;;;;;;6.82;2.90;;;12.00;99.90;;;;;;4991194;28;20049;-84
2022/09/24 00:39:03;;;;;;;5.60;3.05;;;12.00;99.90;;;;;;4994447;28;20415;-83
2022/09/24 00:41:32;;;;;;;5.68;3.00;;;12.00;99.90;;;;;;4984242;28;20064;-83
2022/09/24 00:43:58;;;;;;;6.80;3.03;;;12.00;99.90;;;;;;4993592;28;20118;-83
2022/09/24 00:46:41;;;;;;;5.97;2.80;;;11.90;99.90;;;;;;4995744;28;20073;-83
2022/09/24 00:49:11;;;;;;;;;;;11.90;99.90;;;;;;4995446;28;20491;-83
2022/09/24 00:51:39;;;;;;;6.07;2.65;;;11.90;99.90;;;;;;4979619;28;19936;-84
2022/09/24 00:54:10;;;;;;;7.00;3.28;;;11.80;99.90;;;;;;4987210;28;20049;-84
2022/09/24 00:56:38;;;;;;;7.47;3.13;;;11.90;99.90;;;;;;4990596;28;20030;-84
2022/09/24 00:59:07;;;;;;;7.68;3.13;;;11.90;99.90;;;;;;4991877;28;20247;-84
2022/09/24 01:01:32;;;;;;;6.88;3.40;;;11.90;99.90;;;;;;4995066;28;20391;-83
2022/09/24 01:04:00;;;;;;;7.97;2.92;;;11.90;99.90;;;;;;4994928;28;20026;-83
2022/09/24 01:06:26;;;;;;;5.78;2.95;;;11.80;99.90;;;;;;4986830;28;20146;-84
2022/09/24 01:08:54;;;;;;;6.07;3.25;;;11.80;99.90;;;;;;4989948;28;20034;-84
2022/09/24 01:11:43;;;;;;;8.00;4.00;;;11.80;99.90;;;;;;4982151;28;20117;-84
2022/09/24 01:14:15;;;;;;;7.20;3.20;;;11.80;99.90;;;;;;4992831;28;20054;-83
2022/09/24 01:17:01;;;;;;;5.35;2.67;;;11.70;99.90;;;;;;4991586;28;20018;-82
2022/09/24 01:19:58;;;;;;;6.53;3.40;;;11.70;99.90;;;;;;4990401;28;20033;-83
2022/09/24 01:22:48;;;;;;;4.65;2.88;;;11.60;99.90;;;;;;4972815;28;20068;-83
2022/09/24 01:25:32;;;;;;;6.75;2.90;;;11.60;99.90;;;;;;4994000;28;20045;-84
2022/09/24 01:27:57;;;;;;;6.63;3.60;;;11.60;99.90;;;;;;4994280;28;20030;-83
2022/09/24 01:30:24;;;;;;;8.07;3.38;;;11.60;99.90;;;;;;4984093;28;20634;-83
2022/09/24 01:33:02;;;;;;;9.68;3.28;;;11.40;99.90;;;;;;4991600;28;20136;-83
2022/09/24 01:35:43;;;;;;;9.73;3.80;;;11.40;99.90;;;;;;4979652;28;20061;-83
2022/09/24 01:38:15;;;;;;;7.63;2.92;;;11.40;99.90;;;;;;4982780;28;20022;-83
2022/09/24 01:40:43;;;;;;;8.18;3.22;;;11.40;99.90;;;;;;4991761;28;20030;-84
2022/09/24 01:43:10;;;;;;;7.55;3.53;;;11.30;99.90;;;;;;4994605;28;20022;-85
2022/09/24 01:45:38;;;;;;;5.90;3.22;;;11.40;99.90;;;;;;4994018;28;20022;-84
2022/09/24 01:48:04;;;;;;;7.05;3.55;;;11.20;99.90;;;;;;4993497;28;20443;-83
2022/09/24 01:50:39;;;;;;;7.00;3.33;;;11.20;99.90;;;;;;4987908;28;20022;-83
2022/09/24 01:53:22;;;;;;;7.53;3.33;;;11.20;99.90;;;;;;4987123;28;20542;-85
2022/09/24 01:55:52;;;;;;;7.03;3.30;;;11.20;99.90;;;;;;4974033;28;20033;-83
2022/09/24 01:58:26;;;;;;;7.90;3.70;;;11.20;99.90;;;;;;4980246;28;20422;-83
2022/09/24 02:00:58;;;;;;;6.80;3.22;;;11.20;99.90;;;;;;4975489;28;20399;-83
2022/09/24 02:03:30;;;;;;;;;;;11.10;99.90;;;;;;4982774;28;20019;-83
2022/09/24 02:06:04;;;;;;;5.35;2.90;;;11.10;99.90;;;;;;4993857;28;19910;-83
2022/09/24 02:08:43;;;;;;;6.38;2.95;;;11.10;99.90;;;;;;4984169;28;20030;-83
2022/09/24 02:11:11;;;;;;;6.75;3.67;;;11.10;99.90;;;;;;4996646;28;20030;-84
2022/09/24 02:13:42;;;;;;;5.97;2.95;;;11.00;99.90;;;;;;4998058;28;20022;-84
2022/09/24 02:16:13;;;;;;;7.00;3.03;;;11.10;99.90;;;;;;5003774;28;20030;-85
2022/09/24 02:18:41;;;;;;;5.75;2.83;;;11.00;99.90;;;;;;4996046;28;20066;-83
2022/09/24 02:21:12;;;;;;;6.97;2.70;;;11.00;99.90;;;;;;4998637;28;20022;-83
2022/09/24 02:23:43;;;;;;;7.15;3.72;;;11.00;99.90;;;;;;4989856;28;20513;-83
2022/09/24 02:26:10;;;;;;;5.35;2.47;;;11.00;99.90;;;;;;4995533;28;20031;-83
2022/09/24 02:28:35;;;;;;;5.00;2.67;;;11.00;99.90;;;;;;4991699;28;20082;-84
2022/09/24 02:31:07;;;;;;;5.18;2.53;;;10.90;99.90;;;;;;5000942;28;20030;-84
2022/09/24 02:36:23;;;;;;;6.70;2.83;;;10.90;99.90;;;;;;4997289;28;20304;-83
2022/09/24 02:38:50;;;;;;;6.82;2.97;;;10.90;99.90;;;;;;5001969;28;20022;-83
2022/09/24 02:41:16;;;;;;;6.05;3.22;;;10.90;99.90;;;;;;5000708;28;20027;-83
2022/09/24 02:43:43;;;;;;;7.78;3.00;;;10.80;99.90;;;;;;4983577;28;20023;-84
2022/09/24 02:46:09;;;;;;;7.07;3.28;;;10.90;99.90;;;;;;4982712;28;20051;-84
2022/09/24 02:48:36;;;;;;;5.78;2.97;;;10.80;99.90;;;;;;4985911;28;20033;-83
2022/09/24 02:51:03;;;;;;;8.43;2.92;;;10.90;99.90;;;;;;4988469;28;20026;-84
2022/09/24 02:53:29;;;;;;;8.52;3.30;;;10.90;99.90;;;;;;5001976;28;20019;-83
2022/09/24 02:55:55;;;;;;;9.57;3.65;;;10.90;99.90;;;;;;5001941;28;20077;-83
2022/09/24 02:58:20;;;;;;;6.50;3.22;;;10.90;99.90;;;;;;4988529;28;20094;-83
2022/09/24 03:00:46;;;;;;;6.63;3.47;;;11.00;99.90;;;;;;4998317;28;20034;-82
2022/09/24 03:03:14;;;;;;;6.78;3.40;;;11.00;99.90;;;;;;4988496;28;20033;-83
2022/09/24 03:05:40;;;;;;;7.05;2.95;;;11.00;99.90;;;;;;4998007;28;20501;-83
2022/09/24 03:08:06;;;;;;;5.47;3.22;;;11.00;99.90;;;;;;4992481;28;20049;-83
2022/09/24 03:10:32;;;;;;;7.72;3.08;;;11.10;99.90;;;;;;4997850;28;20058;-84
2022/09/24 03:12:58;;;;;;;6.72;3.40;;;11.10;99.90;;;;;;4994712;28;20050;-84
2022/09/24 03:15:24;;;;;;;6.25;3.08;;;11.10;99.90;;;;;;4997759;28;20018;-84
2022/09/24 03:17:50;;;;;;;5.75;2.95;;;11.10;99.90;;;;;;4995150;28;20107;-83
2022/09/24 03:20:18;;;;;;;8.38;4.00;;;11.10;99.90;;;;;;4998109;28;20486;-83
2022/09/24 03:22:44;;;;;;;8.90;3.28;;;11.10;99.90;;;;;;4997479;28;20030;-83
2022/09/24 03:25:10;;;;;;;7.45;2.92;;;11.20;99.90;;;;;;4997203;28;20031;-83
2022/09/24 03:27:35;;;;;;;5.70;3.10;;;11.20;99.90;;;;;;4997303;28;20026;-84
2022/09/24 03:32:47;;;;;;;5.95;2.97;;;11.10;99.90;;;;;;4995815;28;20386;-83
2022/09/24 03:35:14;;;;;;;5.53;3.17;;;11.10;99.90;;;;;;4980925;28;20034;-83
2022/09/24 03:37:41;;;;;;;5.60;3.05;;;11.10;99.90;;;;;;4984824;28;20077;-84
2022/09/24 03:40:08;;;;;;;8.65;3.63;;;11.10;99.90;;;;;;4987091;28;20022;-84
2022/09/24 03:42:34;;;;;;;4.88;2.53;;;11.10;99.90;;;;;;4998179;28;20023;-84
2022/09/24 03:45:00;;;;;;;5.32;2.38;;;11.10;99.90;;;;;;4994287;28;20084;-84
2022/09/24 03:47:26;;;;;;;5.57;2.78;;;11.10;99.90;;;;;;4984568;28;20479;-83
2022/09/24 03:49:52;;;;;;;6.43;2.97;;;11.10;99.90;;;;;;4998607;28;20026;-83
2022/09/24 03:52:18;;;;;;;9.25;2.85;;;11.20;99.90;;;;;;4999128;28;20028;-82
2022/09/24 03:54:43;;;;;;;5.80;2.75;;;11.20;99.90;;;;;;4996546;28;20073;-83
2022/09/24 03:57:13;;;;;;;5.05;2.60;;;11.20;99.90;;;;;;5006382;28;20025;-82
2022/09/24 03:59:43;;;;;;;6.35;3.30;;;11.40;99.90;;;;;;4997945;28;20519;-83
2022/09/24 04:02:09;;;;;;;5.88;2.85;;;11.00;99.90;;;;;;4996875;28;20018;-84
2022/09/24 04:04:35;;;;;;;5.22;2.92;;;11.00;99.90;;;;;;4996895;28;20030;-82
2022/09/24 04:07:01;;;;;;;7.68;3.40;;;10.90;99.90;;;;;;4995538;28;20064;-85
2022/09/24 04:09:26;;;;;;;7.18;3.15;;;10.90;99.90;;;;;;4997862;28;20080;-83
2022/09/24 04:11:52;;;;;;;5.18;2.70;;;10.80;99.90;;;;;;4996076;28;20089;-84
2022/09/24 04:14:19;;;;;;;6.93;3.10;;;10.80;99.90;;;;;;4982360;28;20041;-84
2022/09/24 04:16:44;;;;;;;6.32;2.85;;;10.80;99.90;;;;;;4999722;28;20018;-84
2022/09/24 04:19:11;;;;;;;6.95;3.22;;;10.80;99.90;;;;;;4998991;28;20022;-83
2022/09/24 04:21:37;;;;;;;6.53;3.33;;;10.80;99.90;;;;;;4984610;28;20018;-83
2022/09/24 04:24:03;;;;;;;5.15;2.65;;;10.80;99.90;;;;;;4989837;28;20057;-84
2022/09/24 04:26:29;;;;;;;8.13;3.05;;;10.90;99.90;;;;;;4988875;28;20025;-84
2022/09/24 04:28:58;;;;;;;5.95;3.08;;;11.30;99.90;;;;;;4992671;28;20046;-83
2022/09/24 04:31:26;;;;;;;6.15;2.90;;;10.90;99.90;;;;;;4998445;28;20033;-84
2022/09/24 04:33:52;;;;;;;7.32;3.10;;;11.00;99.90;;;;;;4998656;28;20030;-84
2022/09/24 04:36:18;;;;;;;5.10;2.75;;;11.00;99.90;;;;;;4999422;28;20130;-83
2022/09/24 04:38:45;;;;;;;6.15;2.85;;;11.00;99.90;;;;;;4997161;28;20034;-84
2022/09/24 04:41:12;;;;;;;4.95;2.70;;;11.00;99.90;;;;;;4979276;28;20030;-83
2022/09/24 04:43:38;;;;;;;5.78;2.92;;;11.10;99.90;;;;;;4999090;28;20364;-84
2022/09/24 04:46:04;;;;;;;6.32;2.97;;;11.10;99.90;;;;;;4996417;28;20109;-84
2022/09/24 04:48:30;;;;;;;6.68;3.30;;;11.10;99.90;;;;;;4986477;28;20026;-84
2022/09/24 04:50:56;;;;;;;6.20;3.13;;;11.10;99.90;;;;;;4984661;28;20056;-83
2022/09/24 04:53:22;;;;;;;5.13;2.90;;;11.10;99.90;;;;;;4997142;28;20022;-83
2022/09/24 04:55:48;;;;;;;5.13;2.85;;;11.10;99.90;;;;;;4996601;28;20105;-83
2022/09/24 04:58:14;;;;;;;6.65;2.97;;;11.10;99.90;;;;;;4981857;28;20398;-85
2022/09/24 05:00:41;;;;;;;5.72;3.13;;;11.10;99.90;;;;;;5032241;23;20049;-81
2022/09/24 05:03:06;;;;;;;5.63;2.70;;;11.00;99.90;;;;;;5035278;28;20378;-82
2022/09/24 05:05:33;;;;;;;5.93;2.65;;;11.10;99.90;;;;;;5042458;28;20021;-82
2022/09/24 05:08:00;;;;;;;7.05;2.83;;;11.10;99.90;;;;;;5029136;28;20425;-82
2022/09/24 05:10:26;;;;;;;6.47;2.58;;;11.10;99.90;;;;;;5017952;28;20053;-82
2022/09/24 05:12:52;;;;;;;5.78;2.35;;;11.00;99.90;;;;;;5011296;28;20495;-81
2022/09/24 05:15:20;;;;;;;4.63;2.42;;;11.00;99.90;;;;;;5004644;28;20022;-82
2022/09/24 05:17:46;;;;;;;4.78;2.58;;;10.90;99.90;;;;;;5012578;28;20501;-82
2022/09/24 05:20:13;;;;;;;7.03;2.60;;;10.90;99.90;;;;;;5010351;28;20018;-82
2022/09/24 05:22:43;;;;;;;5.68;3.03;;;10.80;99.90;;;;;;5009409;28;20026;-82
2022/09/24 05:25:10;;;;;;;5.57;3.17;;;10.70;99.90;;;;;;4999762;28;20029;-82
2022/09/24 05:27:36;;;;;;;6.50;2.90;;;10.70;99.90;;;;;;5013229;28;20500;-82
2022/09/24 05:30:02;;;;;;;6.70;3.30;;;10.60;99.90;;;;;;5006477;28;20518;-82
2022/09/24 05:32:28;;;;;;;7.55;2.78;;;10.60;99.90;;;;;;5013799;28;20026;-82
2022/09/24 05:34:54;;;;;;;5.35;2.83;;;10.50;99.90;;;;;;5011348;28;20483;-83
2022/09/24 05:37:19;;;;;;;6.28;3.22;;;10.50;99.90;;;;;;5010450;28;20541;-82
2022/09/24 05:39:45;;;;;;;5.38;2.90;;;10.50;99.90;;;;;;5012574;28;20113;-82
2022/09/24 05:42:13;;;;;;;7.03;3.50;;;10.50;99.90;;;;;;5012194;28;20029;-82
2022/09/24 05:44:39;;;;;;;5.30;2.75;;;10.50;99.90;;;;;;5012504;28;20563;-81
2022/09/24 05:47:04;;;;;;;7.28;2.97;;;10.40;99.90;;;;;;5012937;28;20057;-82
2022/09/24 05:49:30;;;;;;;6.88;3.25;;;10.40;99.90;;;;;;5014413;28;20434;-82
2022/09/24 05:51:56;;;;;;;5.40;3.17;;;10.40;99.90;;;;;;5016803;28;20056;-81
2022/09/24 05:54:22;;;;;;;6.60;3.17;;;10.50;99.90;;;;;;5016625;28;20049;-82
2022/09/24 05:56:48;;;;;;;6.95;3.33;;;10.50;99.90;;;;;;5014821;28;20503;-82
2022/09/24 05:59:14;;;;;;;7.07;3.38;;;10.50;99.90;;;;;;5015451;28;20026;-82
2022/09/24 06:01:40;;;;;;;5.95;2.97;;;10.50;99.90;;;;;;5006476;28;20022;-82
2022/09/24 06:04:06;;;;;;;6.03;2.92;;;10.60;99.90;;;;;;5005357;28;20022;-82
2022/09/24 06:06:33;;;;;;;6.13;2.95;;;10.70;99.90;;;;;;5018000;28;20017;-82
2022/09/24 06:08:58;;;;;;;6.40;3.00;;;10.80;99.90;;;;;;5009799;28;20549;-82
2022/09/24 06:11:24;;;;;;;6.40;2.83;;;10.90;99.90;;;;;;5011203;28;20025;-82
2022/09/24 06:13:50;;;;;;;6.32;3.25;;;10.90;99.90;;;;;;5016555;28;20050;-83
2022/09/24 06:16:16;;;;;;;4.78;2.67;;;11.10;99.90;;;;;;5015522;28;20029;-81
2022/09/24 06:18:43;;;;;;;6.07;2.70;;;11.10;99.90;;;;;;5012131;28;20076;-82
2022/09/24 06:21:14;;;;;;;6.30;3.03;;;11.20;99.90;;;;;;5014308;28;20018;-82
2022/09/24 06:23:40;;;;;;;5.68;2.88;;;11.20;99.90;;;;;;5016537;28;20018;-82
2022/09/24 06:26:10;;;;;;;5.22;2.50;;;11.20;99.90;;;;;;5013743;28;20084;-82
2022/09/24 06:28:36;;;;;;;5.20;2.67;;;11.30;99.90;;;;;;5008388;28;20034;-81
2022/09/24 06:31:02;;;;;;;5.38;2.63;;;11.30;99.90;;;;;;5016078;28;20679;-81
2022/09/24 06:33:29;;;;;;;7.03;2.33;;;11.30;99.90;;;;;;5015112;28;20020;-82
2022/09/24 06:35:58;;;;;;;4.95;2.85;;;11.40;99.90;;;;;;5013481;28;20030;-82
2022/09/24 06:38:24;;;;;;;6.93;2.80;;;11.50;99.90;;;;;;5012179;28;20025;-82
2022/09/24 06:40:49;;;;;;;4.57;2.60;;;11.50;99.90;;;;;;5021045;28;20022;-82
2022/09/24 06:43:19;;;;;;;9.10;2.88;;;11.60;99.90;;;;;;5013228;28;20028;-82
2022/09/24 06:45:45;;;;;;;5.70;2.75;;;11.90;99.90;;;;;;5011466;28;20014;-82
2022/09/24 06:48:12;;;;;;;5.50;2.92;;;11.60;99.90;;;;;;5012650;28;20032;-82
2022/09/24 06:50:40;;;;;;;7.53;2.83;;;11.60;99.90;;;;;;5012184;28;20025;-83
2022/09/24 06:53:07;;;;;;;4.47;2.35;;;11.60;99.90;;;;;;5016976;28;20760;-82
2022/09/24 06:55:34;;;;;;;5.45;2.45;;;11.60;99.90;;;;;;5014641;28;20029;-82
2022/09/24 06:58:09;;;;;;;5.28;2.50;;;11.70;99.90;;;;;;5012340;28;20385;-85
2022/09/24 07:00:37;;;;;;;5.57;2.72;;;11.70;99.90;;;;;;5015005;28;20529;-84
2022/09/24 07:03:03;;;;;;;5.88;2.72;;;11.80;99.90;;;;;;5011788;28;20072;-84
2022/09/24 07:05:29;;;;;;;5.93;2.97;;;11.90;99.90;;;;;;5012896;28;20049;-84
2022/09/24 07:07:55;;;;;;;6.90;2.72;;;12.00;99.90;;;;;;5012568;28;20018;-83
2022/09/24 07:10:22;;;;;;;7.05;3.20;;;12.10;99.90;;;;;;5012349;28;20029;-84
2022/09/24 07:12:47;;;;;;;5.97;3.00;;;12.20;99.90;;;;;;5005162;28;20021;-84
2022/09/24 07:15:13;;;;;;;5.13;2.55;;;12.30;99.90;;;;;;5009793;28;20036;-84
2022/09/24 07:17:39;;;;;;;4.82;2.70;;;12.30;99.90;;;;;;5011822;28;20104;-84
2022/09/24 07:20:05;;;;;;;5.80;2.70;;;12.40;99.90;;;;;;5012268;28;20029;-84
2022/09/24 07:22:30;;;;;;;6.50;3.00;;;12.50;99.90;;;;;;5007229;28;20037;-84
2022/09/24 07:24:56;;;;;;;4.72;2.33;;;12.40;99.90;;;;;;5010041;28;20113;-84
2022/09/24 07:27:21;;;;;;;5.05;2.65;;;12.60;99.90;;;;;;5012245;28;20490;-84
2022/09/24 07:29:48;;;;;;;4.75;2.45;;;12.60;99.90;;;;;;5011071;28;20089;-84
2022/09/24 07:32:17;;;;;;;5.15;2.55;;;12.70;99.90;;;;;;5014823;28;20021;-83
2022/09/24 07:34:44;;;;;;;6.20;3.05;;;12.70;99.90;;;;;;5011377;28;21366;-84
2022/09/24 07:37:09;;;;;;;5.65;2.53;;;12.80;99.90;;;;;;5012194;28;20097;-84
2022/09/24 07:39:35;;;;;;;6.85;2.65;;;12.80;99.90;;;;;;5010254;28;20106;-84
2022/09/24 07:42:01;;;;;;;7.72;2.58;;;12.80;99.90;;;;;;5009019;28;20156;-84
2022/09/24 07:44:28;;;;;;;4.60;2.47;;;12.90;99.90;;;;;;5008042;28;20443;-84
2022/09/24 07:46:54;;;;;;;5.20;2.50;;;13.00;99.90;;;;;;5010572;28;20024;-84
2022/09/24 07:49:21;;;;;;;5.57;2.60;;;13.10;99.90;;;;;;5011191;28;20097;-84
2022/09/24 07:51:46;;;;;;;5.25;2.90;;;13.10;99.90;;;;;;5007385;28;20045;-84
2022/09/24 07:54:12;;;;;;;6.03;2.58;;;13.20;99.90;;;;;;5006339;28;20022;-84
2022/09/24 07:56:38;;;;;;;6.70;3.13;;;13.20;99.90;;;;;;4997329;28;20022;-84
2022/09/24 07:59:10;;;;;;;6.00;2.92;;;13.10;99.90;;;;;;5011322;28;20026;-84
2022/09/24 08:01:36;;;;;;;5.00;2.75;;;13.20;99.90;;;;;;5008787;28;20028;-84
2022/09/24 08:04:03;;;;;;;6.05;2.90;;;13.20;99.90;;;;;;5010291;28;20038;-84
2022/09/24 08:06:32;;;;;;;6.97;2.97;;;13.30;99.90;;;;;;5011520;28;20021;-84
2022/09/24 08:08:58;;;;;;;5.22;2.88;;;13.40;99.90;;;;;;5005672;28;20058;-84
2022/09/24 08:11:24;;;;;;;7.03;3.03;;;13.50;99.90;;;;;;5009859;28;20036;-85
2022/09/24 08:13:50;;;;;;;6.22;3.08;;;13.60;99.90;;;;;;5005921;28;20383;-84
2022/09/24 08:16:16;;;;;;;5.93;3.33;;;13.60;99.90;;;;;;5009374;28;20030;-84
2022/09/24 08:18:42;;;;;;;5.35;3.10;;;13.70;99.90;;;;;;5007628;28;20037;-84
2022/09/24 08:21:10;;;;;;;4.50;2.45;;;14.00;99.90;;;;;;5010213;28;20041;-84
2022/09/24 08:23:37;;;;;;;4.70;2.88;;;13.80;99.90;;;;;;5011186;28;20042;-84
2022/09/24 08:26:03;;;;;;;7.20;2.80;;;13.80;99.90;;;;;;5007492;28;20026;-84
2022/09/24 08:28:30;;;;;;;4.32;2.50;;;13.80;99.90;;;;;;5006285;28;20085;-84
2022/09/24 08:30:59;;;;;;;6.53;2.80;;;13.90;99.90;;;;;;5009911;28;20034;-84
2022/09/24 08:33:30;;;;;;;4.85;2.53;;;14.10;99.90;;;;;;5009924;28;20026;-84
2022/09/24 08:35:59;;;;;;;4.40;2.08;;;14.20;99.90;;;;;;5004965;28;20459;-84
2022/09/24 08:38:26;;;;;;;5.47;2.05;;;14.30;99.90;;;;;;5008086;28;20084;-85
2022/09/24 08:41:10;;;;;;;4.57;2.25;;;14.30;99.90;;;;;;5008528;28;20040;-84
2022/09/24 08:47:21;;;;;;;4.68;2.20;;;14.40;99.90;;;;;;5005448;28;20029;-84
2022/09/24 08:47:22;;;;;;;4.88;2.13;;;14.40;99.90;;;;;;5004840;28;20433;-85
2022/09/24 08:50:08;;;;;;;5.75;2.00;;;14.50;99.90;;;;;;5006150;28;20026;-84
2022/09/24 08:52:53;;;;;;;6.38;2.17;;;14.60;99.90;;;;;;5001485;28;20080;-84
2022/09/24 08:55:24;;;;;;;5.20;1.95;;;14.70;99.90;;;;;;5023869;28;20025;-84
2022/09/24 08:57:59;;;;;;;3.33;1.75;;;14.80;99.90;;;;;;5004904;28;20018;-84
2022/09/24 09:00:30;;;;;;;4.28;1.80;;;15.00;99.90;;;;;;4968786;28;1074237;-83
2022/09/24 09:03:10;;;;;;;3.30;1.55;;;15.20;99.90;;;;;;5010974;28;20026;-83
2022/09/24 09:05:42;;;;;;;3.95;1.90;;;15.40;99.90;;;;;;5014196;28;20104;-82
2022/09/24 09:08:52;;;;;;;2.92;1.40;;;15.40;99.90;;;;;;5013233;28;20037;-84
2022/09/24 09:11:22;;;;;;;2.35;1.25;;;15.40;99.90;;;;;;4979668;28;20446;-83
2022/09/24 09:13:57;;;;;;;4.45;1.58;;;15.30;99.90;;;;;;5011086;28;20499;-84
2022/09/24 09:16:39;;;;;;;2.97;1.35;;;15.30;99.90;;;;;;5010899;28;20033;-83
2022/09/24 09:19:11;;;;;;;4.47;1.63;;;15.40;99.90;;;;;;5008817;28;20034;-83
2022/09/24 09:21:40;;;;;;;;;;;15.50;99.90;;;;;;5010753;28;20033;-84
2022/09/24 09:24:33;;;;;;;3.33;1.27;;;15.50;99.90;;;;;;5013543;28;19909;-84
2022/09/24 09:27:00;;;;;;;4.47;1.20;;;15.60;99.90;;;;;;5007328;28;20095;-83
2022/09/24 09:29:26;;;;;;;2.58;1.20;;;15.70;99.90;;;;;;5008583;28;20029;-83
2022/09/24 09:32:27;;;;;;;4.20;1.42;;;15.60;99.90;;;;;;5001481;28;20430;-84
2022/09/24 09:35:35;;;;;;;3.67;1.35;;;15.50;99.90;;;;;;5003300;28;20120;-84
2022/09/24 09:38:22;;;;;;;3.58;1.45;;;15.50;99.90;;;;;;5006808;28;20121;-84
2022/09/24 09:41:09;;;;;;;6.20;1.00;;;15.50;99.90;;;;;;5005997;28;20032;-84
2022/09/24 09:43:35;;;;;;;4.00;1.10;;;15.50;99.90;;;;;;5007774;28;20029;-84
2022/09/24 09:46:26;;;;;;;4.13;1.10;;;15.20;99.90;;;;;;5003198;28;20056;-85
2022/09/24 09:49:01;;;;;;;2.75;1.05;;;15.10;99.90;;;;;;5012409;28;20034;-85
2022/09/24 09:51:33;;;;;;;3.05;1.23;;;15.20;99.90;;;;;;5010175;28;20491;-84
2022/09/24 09:54:01;;;;;;;2.63;0.88;;;15.20;99.90;;;;;;5007221;28;20025;-85
2022/09/24 09:56:36;;;;;;;3.95;1.40;;;15.10;99.90;;;;;;5002843;28;20053;-85
2022/09/24 09:59:30;;;;;;;1.83;0.95;;;15.10;99.90;;;;;;5011617;28;20080;-84
2022/09/24 10:01:56;;;;;;;2.58;0.93;;;15.20;99.90;;;;;;5009529;28;20460;-84
2022/09/24 10:04:34;;;;;;;3.63;1.00;;;15.50;99.90;;;;;;5008463;28;20021;-84
2022/09/24 10:07:06;;;;;;;2.47;1.05;;;15.30;99.90;;;;;;5009666;28;20022;-84
2022/09/24 10:09:32;;;;;;;3.08;1.33;;;15.30;99.90;;;;;;5002646;28;20121;-84
2022/09/24 10:12:08;;;;;;;2.53;1.13;;;15.50;99.90;;;;;;5012350;28;20623;-84
2022/09/24 10:14:34;;;;;;;2.63;1.00;;;15.40;99.90;;;;;;5012200;28;20048;-84
2022/09/24 10:17:04;;;;;;;2.35;0.93;;;15.50;99.90;;;;;;5012741;28;20454;-84
2022/09/24 10:19:33;;;;;;;1.92;1.02;;;15.50;99.90;;;;;;5012657;28;20080;-84
2022/09/24 10:22:20;;;;;;;1.63;0.85;;;15.50;99.90;;;;;;5011970;28;20069;-84
2022/09/24 10:24:46;;;;;;;3.45;1.00;;;15.50;99.90;;;;;;5010814;28;20022;-84
2022/09/24 10:27:20;;;;;;;2.33;0.75;;;15.50;99.90;;;;;;5014698;28;20162;-84
2022/09/24 10:32:30;;;;;;;3.50;0.85;;;15.50;99.90;;;;;;5010153;28;20100;-84
2022/09/24 10:35:28;;;;;;;2.33;0.77;;;15.40;99.90;;;;;;5006870;28;20037;-84
2022/09/24 10:37:56;;;;;;;3.15;0.77;;;15.40;99.90;;;;;;5005924;28;20387;-84
2022/09/24 10:40:38;;;;;;;1.20;0.70;;;15.20;99.90;;;;;;5012525;28;20040;-84
2022/09/24 10:43:05;;;;;;;1.15;0.60;;;15.20;99.90;;;;;;5008771;28;20036;-84
2022/09/24 10:46:02;;;;;;;1.40;0.65;;;15.10;99.90;;;;;;5009161;28;20062;-83
2022/09/24 10:48:45;;;;;;;1.75;0.75;;;15.10;99.90;;;;;;5010903;28;20161;-84
2022/09/24 10:51:25;;;;;;;2.03;0.65;;;15.10;99.90;;;;;;5010838;28;20022;-84
2022/09/24 10:54:16;;;;;;;1.67;0.70;;;14.90;99.90;;;;;;5009329;28;20515;-84
2022/09/24 10:56:54;;;;;;;2.17;0.77;;;14.80;99.90;;;;;;5008414;28;20042;-85
2022/09/24 10:59:57;;;;;;;1.80;0.90;;;14.70;99.90;;;;;;5008603;28;20483;-86
2022/09/24 11:02:30;;;;;;;4.60;1.00;;;14.60;99.90;;;;;;5008031;28;20101;-87
2022/09/24 11:05:23;;;;;;;3.13;0.90;;;14.50;99.90;;;;;;5009815;28;20023;-87
2022/09/24 11:07:58;;;;;;;3.75;0.85;;;14.50;99.90;;;;;;5001242;28;20030;-87
2022/09/24 11:10:50;;;;;;;2.78;1.23;;;14.40;99.90;;;;;;5005693;28;20544;-86
2022/09/24 11:13:48;;;;;;;2.35;1.15;;;14.40;99.90;;;;;;5005527;28;20410;-86
2022/09/24 11:16:37;;;;;;;2.05;0.98;;;14.30;99.90;;;;;;4999854;28;20038;-86
2022/09/24 11:19:26;;;;;;;2.25;0.90;;;14.30;99.90;;;;;;5001090;28;20030;-86
2022/09/24 11:22:09;;;;;;;2.75;1.00;;;14.40;99.90;;;;;;5007131;28;20147;-85
2022/09/24 11:24:41;;;;;;;2.65;1.00;;;14.40;99.90;;;;;;5004361;28;20018;-84
2022/09/24 11:27:29;;;;;;;2.58;1.02;;;14.50;99.90;;;;;;5004552;28;20057;-86
2022/09/24 11:30:16;;;;;;;2.05;0.80;;;14.90;99.90;;;;;;5006254;28;20390;-86
2022/09/24 11:33:07;;;;;;;3.40;0.90;;;14.70;99.90;;;;;;5003126;28;20030;-85
2022/09/24 11:36:04;;;;;;;2.85;1.13;;;14.70;99.90;;;;;;5010181;28;20084;-86
2022/09/24 11:38:43;;;;;;;1.95;0.93;;;14.80;99.90;;;;;;5004847;28;20034;-86
2022/09/24 11:41:30;;;;;;;2.72;1.20;;;14.80;99.90;;;;;;5005867;28;20031;-86
2022/09/24 11:44:17;;;;;;;2.63;1.30;;;14.90;99.90;;;;;;5005937;28;20026;-85
2022/09/24 11:46:47;;;;;;;2.67;1.17;;;14.80;99.90;;;;;;5002478;28;20095;-85
2022/09/24 11:49:12;;;;;;;2.72;1.35;;;15.10;99.90;;;;;;5004321;28;20026;-85
2022/09/24 11:51:45;;;;;;;2.38;1.10;;;14.70;99.90;;;;;;5009595;28;20498;-84
2022/09/24 11:54:23;;;;;;;2.53;1.15;;;14.80;99.90;;;;;;5008510;28;20046;-85
2022/09/24 11:56:55;;;;;;;2.83;1.08;;;14.80;99.90;;;;;;5011797;28;20032;-84
2022/09/24 11:59:41;;;;;;;2.35;1.13;;;14.80;99.90;;;;;;5004690;28;20554;-84
2022/09/24 12:02:18;;;;;;;2.35;1.23;;;14.70;99.90;;;;;;5009796;28;20525;-84
2022/09/24 12:04:59;;;;;;;2.72;1.10;;;14.70;99.90;;;;;;4998711;28;20010;-84
2022/09/24 12:14:12;;;;;;;3.85;1.30;;;14.80;99.90;;;;;;5048749;28;20049;-89
2022/09/24 12:16:56;;;;;;;3.35;1.50;;;14.90;99.90;;;;;;5046632;28;20017;-88
2022/09/24 12:23:42;;;;;;;;;;;;;;;;;;;;;
2022/09/24 12:27:03;;;;;;;3.22;1.35;;;15.00;99.90;;;;;;5041195;28;20031;-89
2022/09/24 12:33:14;;;;;;;4.63;1.52;;;15.10;99.90;;;;;;5046820;28;20562;-89
2022/09/24 12:39:02;;;;;;;3.10;1.30;;;15.10;99.90;;;;;;5042333;28;20215;-88
2022/09/24 12:42:12;;;;;;;;;;;;;;;;;;;;;
2022/09/24 12:45:35;;;;;;;;;;;;;;;;;;;;;
2022/09/24 12:48:45;;;;;;;;;;;;;;;;;;;;;
2022/09/24 12:54:43;;;;;;;2.53;1.17;;;15.20;99.90;;;;;;5034525;28;20642;-89
2022/09/24 12:57:49;;;;;;;2.95;1.25;;;15.30;99.90;;;;;;5062242;23;20041;-89
2022/09/24 13:01:04;;;;;;;;;;;;;;;;;;;;;
2022/09/24 13:03:50;;;;;;;3.42;1.52;;;15.40;99.90;;;;;;5018617;28;20021;-89
2022/09/24 13:06:36;;;;;;;3.63;1.90;;;15.50;99.90;;;;;;5012037;28;20025;-88
2022/09/24 13:09:35;;;;;;;4.20;1.60;;;15.60;99.90;;;;;;4990749;28;20026;-88
2022/09/24 13:12:34;;;;;;;3.38;1.50;;;15.70;99.90;;;;;;5002559;28;20466;-88
2022/09/24 13:15:37;;;;;;;3.92;1.55;;;15.80;99.90;;;;;;4992693;28;20501;-89
2022/09/24 13:18:28;;;;;;;3.50;1.38;;;15.50;99.90;;;;;;4941754;28;20685;-89
2022/09/24 13:22:05;;;;;;;;;;;;;;;;;;;;;
2022/09/24 13:25:30;;;;;;;3.95;1.60;;;15.90;99.90;;;;;;5002246;28;20034;-90
2022/09/24 13:31:51;;;;;;;3.53;1.70;;;15.50;99.90;;;;;;4948794;28;20058;-89
2022/09/24 13:37:37;;;;;;;4.25;1.92;;;15.40;99.90;;;;;;5007460;28;20022;-89
2022/09/24 13:40:32;;;;;;;4.45;1.88;;;15.40;99.90;;;;;;4993886;28;20045;-89
2022/09/24 13:43:45;;;;;;;4.05;1.70;;;15.50;99.90;;;;;;4986512;28;20038;-88
2022/09/24 13:46:50;;;;;;;2.42;1.10;;;15.60;99.90;;;;;;5010995;28;20418;-88
2022/09/24 13:49:18;;;;;;;4.05;1.50;;;15.80;99.90;;;;;;5009389;28;20034;-89
2022/09/24 13:52:10;;;;;;;3.53;1.70;;;15.90;99.90;;;;;;4992415;28;20414;-89
2022/09/24 13:55:09;;;;;;;3.83;1.42;;;16.10;99.90;;;;;;4986870;28;20026;-90
2022/09/24 13:57:50;;;;;;;3.15;1.50;;;16.20;99.90;;;;;;4990954;28;20042;-88
2022/09/24 14:01:05;;;;;;;3.65;1.63;;;16.20;99.90;;;;;;4994257;28;20122;-88
2022/09/24 14:07:04;;;;;;;4.15;1.65;;;16.50;99.90;;;;;;5014015;28;20037;-88
2022/09/24 14:10:24;;;;;;;5.63;2.20;;;16.70;99.90;;;;;;5015686;28;20022;-90
2022/09/24 14:21:43;;;;;;;3.72;1.98;;;16.60;99.90;;;;;;5032671;28;20046;-88